createdAt,value
2023-12-30T00:09:04.691Z,8.68
2023-12-30T00:25:02.333Z,8.06
2023-12-30T00:40:59.925Z,5.98
2023-12-30T00:51:38.722Z,4.76
2023-12-30T01:07:36.949Z,8.85
2023-12-30T01:23:35.520Z,6.48
2023-12-30T01:39:32.969Z,5.02
2023-12-30T01:50:11.194Z,5.66
2023-12-30T02:06:09.346Z,6.68
2023-12-30T02:22:06.109Z,5.8
2023-12-30T02:32:44.386Z,5.58
2023-12-30T02:48:41.851Z,7.26
2023-12-30T03:04:39.534Z,5.48
2023-12-30T03:15:18.396Z,5.96
2023-12-30T03:20:38.047Z,2.66
2023-12-30T03:31:15.905Z,5.9
2023-12-30T03:47:13.210Z,5.46
2023-12-30T03:57:51.035Z,7.16
2023-12-30T04:03:10.725Z,9.66
2023-12-30T04:13:48.484Z,9.56
2023-12-30T04:29:46.232Z,4.6
2023-12-30T04:40:25.490Z,10.32
2023-12-30T04:45:44.406Z,5.96
2023-12-30T04:56:22.866Z,4.71
2023-12-30T05:07:00.534Z,6.06
2023-12-30T05:22:58.585Z,5.64
2023-12-30T05:33:36.715Z,8.1
2023-12-30T05:38:55.616Z,7.88
2023-12-30T05:49:34.280Z,5.72
2023-12-30T06:05:32.132Z,7.12
2023-12-30T06:16:10.266Z,3.22
2023-12-30T06:21:29.719Z,6.78
2023-12-30T06:32:07.365Z,11.84
2023-12-30T06:48:06.353Z,4.96
2023-12-30T06:58:43.415Z,7.78
2023-12-30T07:04:02.667Z,3.98
2023-12-30T07:14:40.795Z,10.04
2023-12-30T07:30:38.799Z,5.76
2023-12-30T07:46:36.394Z,5.4
2023-12-30T07:57:14.591Z,7.6
2023-12-30T08:13:12.154Z,5.32
2023-12-30T08:23:51.060Z,5.14
2023-12-30T08:29:09.855Z,4.84
2023-12-30T08:39:48.557Z,7.14
2023-12-30T08:55:46.961Z,10.48
2023-12-30T09:11:44.437Z,8.42
2023-12-30T09:22:21.877Z,5.34
2023-12-30T09:27:41.675Z,4.04
2023-12-30T09:38:22.594Z,7.66
2023-12-30T09:54:18.545Z,3.96
2023-12-30T10:10:17.424Z,4.44
2023-12-30T10:20:56.009Z,6.66
2023-12-30T10:36:52.751Z,6.12
2023-12-30T10:52:52.059Z,12.28
2023-12-30T11:03:29.119Z,3.1
2023-12-30T11:08:48.786Z,6.68
2023-12-30T11:19:27.724Z,3.7
2023-12-30T11:35:26.097Z,8.5
2023-12-30T11:56:42.309Z,8.52
2023-12-30T12:13:11.608Z,9.2
2023-12-30T12:18:31.346Z,11.5
2023-12-30T12:29:09.905Z,4.56
2023-12-30T12:45:06.773Z,2.58
2023-12-30T12:55:44.958Z,5.34
2023-12-30T13:01:04.018Z,7.06
2023-12-30T13:11:42.879Z,4.92
2023-12-30T13:27:39.690Z,5.74
2023-12-30T13:38:17.728Z,4.3
2023-12-30T13:43:37.275Z,6.44
2023-12-30T13:54:15.032Z,3.26
2023-12-30T14:10:12.566Z,5.6
2023-12-30T14:26:10.570Z,3.84
2023-12-30T14:36:49.341Z,2.84
2023-12-30T14:42:08.823Z,2.9
2023-12-30T14:52:47.233Z,1.42
2023-12-30T15:08:45.199Z,1.46
2023-12-30T15:24:42.742Z,1.3
2023-12-30T15:35:20.573Z,0.52
2023-12-30T15:51:18.158Z,0
2023-12-30T16:07:15.736Z,0
2023-12-30T16:17:53.939Z,0.42
2023-12-30T16:33:51.269Z,0.64
2023-12-30T16:49:49.099Z,1.7
2023-12-30T17:00:27.337Z,0.9
2023-12-30T17:16:25.385Z,0.52
2023-12-30T17:27:05.611Z,0.26
2023-12-30T17:32:22.852Z,1.66
2023-12-30T17:43:01.982Z,2.46
2023-12-30T17:48:21.220Z,1.52
2023-12-30T17:58:59.344Z,2.86
2023-12-30T18:14:57.581Z,1.34
2023-12-30T18:36:14.756Z,2.16
2023-12-30T18:52:12.561Z,1.26
2023-12-30T19:08:10.830Z,1.44
2023-12-30T19:18:50.000Z,0.86
2023-12-30T19:24:09.186Z,1.3
2023-12-30T19:50:46.179Z,0.26
2023-12-30T20:01:25.052Z,0
2023-12-30T20:06:44.509Z,0.74
2023-12-30T20:17:24.042Z,0
2023-12-30T20:33:23.259Z,0.98
2023-12-30T20:41:56.260Z,0.58
2023-12-30T20:59:57.701Z,1.52
2023-12-30T21:15:54.510Z,0
2023-12-30T21:26:33.435Z,0.66
2023-12-30T21:31:52.840Z,1.05
2023-12-30T21:42:31.550Z,0
2023-12-30T21:58:29.260Z,0.5
2023-12-30T22:09:08.108Z,0.9
2023-12-30T22:14:27.584Z,1.48
2023-12-30T22:25:05.761Z,1.42
2023-12-30T22:30:25.227Z,0.92
2023-12-30T22:41:03.663Z,1.38
2023-12-30T22:57:01.962Z,0
2023-12-30T23:07:40.127Z,0.58
2023-12-30T23:23:37.059Z,0
2023-12-30T23:39:34.766Z,0.38
2023-12-30T23:50:13.731Z,0
